Saturday, August 18, 2018, 7:15 AM GMT
Back to Local

CYQI, Yarmouth, N. S.

Location: , , Canada Lat: 43.833
Local Time: 7:15 AM GMT ( 7:15 GMT) Lon: -66.083
Time Zone: GMT Elev: 141 ft

Show me the last for .
Show Coded

Time T Td Feel RH Dir Speed Gust Alt SLP Vis Weather Sky Remarks
2018-08-18 07:00 64 61 - 88 160° 10 - 29.93 29.93 12 BKN015 Pressure falling rapidly
2018-08-18 06:00 63 61 - 93 170° 10 - 29.95 29.96 15 SCT140 None
2018-08-18 05:00 61 61 - 100 160° 8 - 29.99 29.99 8 FEW003 BKN180 None
2018-08-18 04:49 61 61 - 100 150° 8 - 30.00 30.00 8 SCT004 BKN180 None
2018-08-18 04:00 61 61 - 100 140° 8 - 30.01 30.01 3 BR OVC002 None
2018-08-18 03:42 61 59 - 93 150° 8 - 30.02 30.03 3 BR OVC003 None
2018-08-18 03:00 61 61 - 100 140° 8 - 30.02 30.03 0 FG VV001 None
2018-08-18 02:00 61 61 - 100 150° 8 - 30.03 30.04 0 FG VV002 None
2018-08-18 01:25 61 61 - 100 160° 8 - 30.04 30.05 0 FG VV001 None
2018-08-18 01:00 59 59 - 100 150° 8 - 30.05 30.05 3 BR OVC002 None
2018-08-18 00:48 59 59 - 100 150° 7 - 30.05 30.06 3 BR OVC003 None
2018-08-18 00:00 59 59 - 100 170° 6 - 30.06 30.06 2 BR VV001 None
2018-08-17 23:39 59 59 - 100 170° 9 - 30.05 30.06 6 BR BKN002 None
2018-08-17 23:00 59 59 - 100 180° 6 - 30.06 30.06 15 OVC250 None
2018-08-17 22:00 63 59 - 88 180° 7 - 30.06 30.06 15 OVC250 None
2018-08-17 21:00 66 61 - 82 210° 8 - 30.07 30.07 15 FEW035 OVC250 None
2018-08-17 20:00 68 59 - 72 210° 7 - 30.08 30.08 15 FEW035 FEW250 None
2018-08-17 19:00 70 59 - 68 210° 7 - 30.08 30.09 15 FEW035 SCT250 None
2018-08-17 18:00 70 61 - 73 250° 12 - 30.10 30.10 15 FEW035 SCT250 None
2018-08-17 17:00 70 61 - 73 250° 12 - 30.11 30.11 15 FEW030 SCT250 None
2018-08-17 16:00 70 63 - 77 250° 8 - 30.11 30.11 15 FEW030 BKN250 None
2018-08-17 15:00 70 63 - 77 300° 6 - 30.11 30.11 15 SCT030 BKN250 None
2018-08-17 14:00 70 59 - 68 Variable 3 - 30.12 30.12 15 SCT021 SCT250 None
2018-08-17 13:00 66 59 - 77 100° 5 - 30.12 30.13 15 SCT013 BKN250 None
2018-08-17 12:00 64 61 - 88 70° 6 - 30.12 30.13 15 FEW050 SCT250 None
2018-08-17 11:00 61 61 - 100 70° 6 - 30.11 30.11 15 FEW003 FEW050 FEW250 None
2018-08-17 10:00 57 57 - 100 40° 6 - 30.10 30.11 15 FEW003 FEW050 SCT250 None
2018-08-17 09:00 57 57 - 100 50° 6 - 30.08 30.09 15 FEW050 FEW250 None
2018-08-17 08:00 57 57 - 100 40° 7 - 30.07 30.07 15 CLR None

Support USWX by starting your Amazon purchase here.